Time;durP1;ratioP1;P1;durP2;ratioP2;P2;SDS_P1;SDS_P2;PMS_P1;PMS_P2;Temp;Humidity;BMP_temperature;BMP_pressure;BME280_temperature;BME280_humidity;BME280_pressure;Samples;Min_cycle;Max_cycle;Signal;HPM_P1;HPM_P2
2022/03/30 00:01:24;;;;;;;31.98;17.83;;;;;;;7.82;62.92;100575.09;5073460;28;20127;-91
2022/03/30 00:03:50;;;;;;;34.58;18.67;;;;;;;7.83;62.97;100571.50;5089129;28;20059;-90
2022/03/30 00:06:15;;;;;;;40.53;19.02;;;;;;;7.73;63.22;100567.53;5080610;28;20048;-91
2022/03/30 00:08:42;;;;;;;34.53;19.25;;;;;;;7.75;63.14;100573.63;5089657;28;20497;-89
2022/03/30 00:11:08;;;;;;;32.90;18.10;;;;;;;7.67;63.22;100570.47;5093330;28;20123;-91
2022/03/30 00:13:35;;;;;;;31.08;18.30;;;;;;;7.71;63.54;100580.84;5094162;28;20035;-90
2022/03/30 00:16:01;;;;;;;33.80;18.05;;;;;;;7.70;63.62;100586.22;5067727;28;20063;-90
2022/03/30 00:18:26;;;;;;;35.42;17.73;;;;;;;7.68;63.83;100573.03;5071906;28;20090;-90
2022/03/30 00:20:52;;;;;;;32.50;18.52;;;;;;;7.66;63.86;100563.44;5075457;28;20043;-90
2022/03/30 00:23:17;;;;;;;32.53;19.05;;;;;;;7.62;63.82;100560.06;5090092;28;20024;-89
2022/03/30 00:25:42;;;;;;;32.72;18.15;;;;;;;7.57;63.87;100559.41;5092902;28;20043;-88
2022/03/30 00:28:08;;;;;;;34.88;18.48;;;;;;;7.55;64.08;100561.25;5086824;28;20028;-90
2022/03/30 00:30:33;;;;;;;37.28;18.77;;;;;;;7.54;63.99;100571.91;5093994;28;20038;-89
2022/03/30 00:32:58;;;;;;;32.50;18.38;;;;;;;7.45;64.17;100562.56;5096232;28;20024;-90
2022/03/30 00:35:24;;;;;;;36.25;18.75;;;;;;;7.37;64.77;100564.69;5093175;28;20029;-89
2022/03/30 00:37:49;;;;;;;35.85;19.27;;;;;;;7.29;64.95;100561.50;5082781;28;20021;-90
2022/03/30 00:40:16;;;;;;;38.38;18.42;;;;;;;7.22;65.14;100567.03;5086158;28;20465;-89
2022/03/30 00:42:42;;;;;;;31.65;17.90;;;;;;;7.15;65.65;100567.38;5087179;28;20067;-90
2022/03/30 00:45:12;;;;;;;33.17;19.13;;;;;;;7.03;65.49;100552.00;5094841;28;20505;-90
2022/03/30 00:47:37;;;;;;;36.08;18.85;;;;;;;7.05;65.96;100561.56;5093365;28;20104;-91
2022/03/30 00:50:08;;;;;;;37.03;18.90;;;;;;;7.00;66.46;100563.56;5076847;28;20056;-90
2022/03/30 00:52:33;;;;;;;41.50;19.63;;;;;;;6.93;66.78;100554.97;5096939;28;20040;-90
2022/03/30 00:54:59;;;;;;;35.88;19.15;;;;;;;6.90;66.69;100555.13;5094648;28;20015;-91
2022/03/30 00:57:24;;;;;;;34.50;18.52;;;;;;;6.84;66.89;100541.28;5077073;28;20028;-91
2022/03/30 00:59:50;;;;;;;39.33;18.70;;;;;;;6.82;67.05;100548.44;5082506;28;20024;-90
2022/03/30 01:02:17;;;;;;;40.03;19.80;;;;;;;6.76;67.12;100532.78;5090018;28;20539;-91
2022/03/30 01:04:45;;;;;;;39.03;19.77;;;;;;;6.78;67.29;100534.47;5078084;28;20116;-88
2022/03/30 01:07:11;;;;;;;34.53;18.95;;;;;;;6.70;67.38;100531.25;5095819;28;20043;-90
2022/03/30 01:09:36;;;;;;;34.65;19.98;;;;;;;6.72;67.58;100539.97;5090262;28;20481;-90
2022/03/30 01:12:03;;;;;;;38.17;19.75;;;;;;;6.55;68.00;100519.50;5088296;28;20031;-90
2022/03/30 01:14:29;;;;;;;38.40;20.02;;;;;;;6.60;68.11;100549.25;5072984;28;20028;-91
2022/03/30 01:16:54;;;;;;;35.33;18.90;;;;;;;6.55;68.32;100542.44;5092448;28;20103;-91
2022/03/30 01:19:21;;;;;;;36.33;19.73;;;;;;;6.51;68.78;100546.13;5093205;28;20028;-91
2022/03/30 01:21:46;;;;;;;36.70;18.70;;;;;;;6.48;68.57;100537.41;5091891;28;20035;-90
2022/03/30 01:24:12;;;;;;;36.28;19.25;;;;;;;6.44;68.70;100527.00;5096443;28;20020;-89
2022/03/30 01:26:40;;;;;;;37.78;19.35;;;;;;;6.44;68.67;100522.56;5090055;28;20016;-89
2022/03/30 01:32:25;;;;;;;37.15;18.70;;;;;;;6.40;69.13;100528.91;5086432;28;20016;-90
2022/03/30 01:34:37;;;;;;;37.75;20.42;;;;;;;6.28;69.35;100533.78;5092214;28;20043;-90
2022/03/30 01:37:03;;;;;;;36.25;19.63;;;;;;;6.20;69.61;100527.00;5090468;28;20028;-90
2022/03/30 01:39:29;;;;;;;34.83;19.02;;;;;;;6.18;69.79;100526.19;5092392;28;20028;-91
2022/03/30 01:41:55;;;;;;;35.33;18.95;;;;;;;6.09;69.60;100505.41;5096167;28;20152;-90
2022/03/30 01:44:20;;;;;;;37.70;19.00;;;;;;;6.11;69.85;100513.28;5094792;28;20028;-90
2022/03/30 01:46:46;;;;;;;33.58;17.90;;;;;;;6.09;69.89;100513.31;5091355;28;20020;-89
2022/03/30 01:49:11;;;;;;;36.90;20.17;;;;;;;6.09;69.92;100515.13;5095222;28;20545;-90
2022/03/30 01:51:36;;;;;;;37.13;19.58;;;;;;;6.05;70.01;100506.44;5068833;28;20250;-90
2022/03/30 01:54:02;;;;;;;40.85;20.15;;;;;;;6.10;69.78;100512.41;5089123;28;20024;-90
2022/03/30 01:56:27;;;;;;;33.85;18.73;;;;;;;6.10;69.86;100516.81;5096020;28;20020;-89
2022/03/30 01:58:52;;;;;;;41.10;19.27;;;;;;;6.08;69.47;100513.41;5082896;28;20032;-90
2022/03/30 02:01:18;;;;;;;38.28;18.60;;;;;;;6.06;70.03;100510.81;5093954;28;20030;-90
2022/03/30 02:03:43;;;;;;;37.05;18.35;;;;;;;6.04;69.88;100514.44;5077198;28;20035;-90
2022/03/30 02:06:12;;;;;;;41.03;20.52;;;;;;;5.90;70.69;100497.28;5074236;28;20051;-89
2022/03/30 02:08:37;;;;;;;43.70;20.58;;;;;;;5.93;70.71;100505.09;5094300;28;20040;-90
2022/03/30 02:11:02;;;;;;;36.88;19.83;;;;;;;5.91;71.00;100504.28;5088901;28;20120;-90
2022/03/30 02:13:28;;;;;;;40.85;21.00;;;;;;;5.88;71.04;100504.38;5094521;28;20020;-90
2022/03/30 02:15:53;;;;;;;40.45;20.42;;;;;;;5.85;70.79;100501.88;5091846;28;20549;-89
2022/03/30 02:18:19;;;;;;;38.17;19.48;;;;;;;5.80;71.33;100500.31;5092273;28;20020;-90
2022/03/30 02:20:44;;;;;;;43.00;19.95;;;;;;;5.76;71.25;100504.84;5083238;28;20094;-90
2022/03/30 02:23:10;;;;;;;40.38;20.58;;;;;;;5.68;71.40;100497.19;5089109;28;20032;-90
2022/03/30 02:25:35;;;;;;;39.33;19.60;;;;;;;5.58;71.47;100494.94;5072717;28;20410;-88
2022/03/30 02:28:00;;;;;;;40.00;20.27;;;;;;;5.54;71.76;100490.69;5105133;28;20055;-90
2022/03/30 02:30:26;;;;;;;37.20;19.05;;;;;;;5.52;71.64;100488.13;5098728;28;20038;-90
2022/03/30 02:32:51;;;;;;;37.67;18.83;;;;;;;5.46;71.97;100483.03;5089076;28;20028;-89
2022/03/30 02:35:18;;;;;;;36.80;18.27;;;;;;;5.42;72.07;100481.44;5094394;28;20032;-89
2022/03/30 02:37:44;;;;;;;41.17;18.50;;;;;;;5.38;72.32;100474.53;5091677;28;20028;-90
2022/03/30 02:40:09;;;;;;;38.78;19.30;;;;;;;5.30;72.25;100468.66;5089357;28;20487;-89
2022/03/30 02:42:34;;;;;;;37.42;18.48;;;;;;;5.33;71.67;100473.84;5077521;28;20028;-89
2022/03/30 02:45:00;;;;;;;44.88;19.20;;;;;;;5.24;72.71;100461.84;5074414;28;20030;-89
2022/03/30 02:50:09;;;;;;;42.78;19.27;;;;;;;5.22;72.56;100474.19;5094887;28;20286;-90
2022/03/30 02:52:35;;;;;;;42.78;19.70;;;;;;;5.20;72.46;100465.50;5093758;28;20036;-89
2022/03/30 02:55:00;;;;;;;38.22;18.55;;;;;;;5.23;72.23;100458.34;5092384;28;20501;-90
2022/03/30 02:57:25;;;;;;;35.88;17.42;;;;;;;5.24;72.28;100456.56;5093960;28;20449;-88
2022/03/30 02:59:50;;;;;;;36.13;17.35;;;;;;;5.24;72.28;100448.63;5091613;28;20024;-89
2022/03/30 03:02:16;;;;;;;34.15;18.40;;;;;;;5.20;72.27;100450.53;5075134;28;20476;-89
2022/03/30 03:04:41;;;;;;;36.35;18.77;;;;;;;5.16;72.39;100443.63;5072462;28;20028;-88
2022/03/30 03:07:07;;;;;;;42.05;18.55;;;;;;;5.18;72.46;100446.19;5100398;28;20261;-89
2022/03/30 03:09:32;;;;;;;36.53;18.38;;;;;;;5.13;72.41;100449.00;5101167;28;20039;-90
2022/03/30 03:11:58;;;;;;;32.40;17.85;;;;;;;5.12;72.35;100451.72;5095043;28;20011;-89
2022/03/30 03:14:23;;;;;;;37.33;18.15;;;;;;;5.12;72.40;100446.44;5095545;28;20016;-88
2022/03/30 03:16:49;;;;;;;36.58;18.92;;;;;;;5.11;72.78;100444.72;5079887;28;20027;-88
2022/03/30 03:19:14;;;;;;;39.13;18.70;;;;;;;5.07;72.62;100435.19;5083490;28;20085;-88
2022/03/30 03:21:39;;;;;;;40.55;18.92;;;;;;;5.04;72.65;100435.28;5101364;28;20385;-89
2022/03/30 03:24:05;;;;;;;36.88;18.52;;;;;;;5.03;72.64;100433.56;5097793;28;20035;-89
2022/03/30 03:26:30;;;;;;;36.90;18.85;;;;;;;5.08;72.42;100436.91;5097915;28;20013;-90
2022/03/30 03:28:56;;;;;;;37.13;17.88;;;;;;;5.07;72.59;100436.03;5092166;28;20036;-89
2022/03/30 03:31:21;;;;;;;31.75;17.60;;;;;;;5.02;72.73;100434.44;5109702;28;20027;-89
2022/03/30 03:33:46;;;;;;;35.78;18.95;;;;;;;5.00;73.16;100438.00;5113821;28;20084;-89
2022/03/30 03:36:12;;;;;;;36.03;19.17;;;;;;;4.90;72.86;100423.44;5108601;28;20024;-89
2022/03/30 03:38:37;;;;;;;42.78;17.95;;;;;;;4.98;72.82;100428.44;5098614;28;20468;-89
2022/03/30 03:41:02;;;;;;;43.08;18.38;;;;;;;4.93;73.02;100428.63;5097604;28;20024;-89
2022/03/30 03:43:28;;;;;;;37.28;18.58;;;;;;;4.97;72.91;100442.53;5093203;28;20007;-88
2022/03/30 03:45:53;;;;;;;36.80;18.23;;;;;;;4.93;73.00;100425.97;5075819;28;20492;-88
2022/03/30 03:48:18;;;;;;;43.42;20.48;;;;;;;4.87;73.43;100420.03;5089881;28;20024;-88
2022/03/30 03:50:45;;;;;;;31.67;17.35;;;;;;;4.86;73.68;100419.19;5096314;28;20109;-87
2022/03/30 03:53:10;;;;;;;36.40;18.08;;;;;;;4.83;73.55;100415.78;5080075;28;20389;-89
2022/03/30 03:55:36;;;;;;;34.28;19.83;;;;;;;4.85;73.70;100430.66;5096454;28;20036;-90
2022/03/30 03:58:02;;;;;;;37.58;18.60;;;;;;;4.79;73.82;100419.44;5098289;28;20039;-89
2022/03/30 04:00:28;;;;;;;39.50;19.50;;;;;;;4.79;73.75;100422.94;5082662;28;20095;-88
2022/03/30 04:02:53;;;;;;;39.10;19.42;;;;;;;4.73;73.96;100415.25;5082304;28;20039;-88
2022/03/30 04:05:18;;;;;;;38.47;19.65;;;;;;;4.73;74.08;100421.38;5096634;28;20072;-90
2022/03/30 04:07:44;;;;;;;39.25;18.25;;;;;;;4.70;74.12;100424.09;5092858;28;20052;-89
2022/03/30 04:10:10;;;;;;;38.10;19.02;;;;;;;4.71;74.31;100420.53;5094003;28;20048;-89
2022/03/30 04:12:36;;;;;;;34.95;17.42;;;;;;;4.71;74.17;100417.91;5090061;28;20098;-89
2022/03/30 04:15:03;;;;;;;36.95;18.45;;;;;;;4.68;74.04;100417.13;5098221;28;20035;-89
2022/03/30 04:17:28;;;;;;;37.90;18.45;;;;;;;4.62;74.17;100415.59;5100580;28;20082;-90
2022/03/30 04:19:53;;;;;;;43.38;19.27;;;;;;;4.48;74.31;100392.31;5100512;28;20024;-90
2022/03/30 04:22:19;;;;;;;43.03;18.17;;;;;;;4.50;74.38;100397.53;5097533;28;20477;-89
2022/03/30 04:24:44;;;;;;;42.60;19.23;;;;;;;4.48;74.54;100400.22;5092908;28;20035;-89
2022/03/30 04:27:10;;;;;;;38.83;18.90;;;;;;;4.43;74.73;100402.16;5089961;28;20051;-89
2022/03/30 04:29:35;;;;;;;35.90;18.58;;;;;;;4.38;74.83;100398.78;5088011;28;20028;-89
2022/03/30 04:32:00;;;;;;;35.60;19.10;;;;;;;4.33;75.31;100406.00;5097547;28;20047;-88
2022/03/30 04:34:26;;;;;;;39.60;18.73;;;;;;;4.25;75.31;100405.38;5097913;28;20019;-90
2022/03/30 04:36:51;;;;;;;35.63;18.00;;;;;;;4.20;75.70;100396.75;5092070;28;20028;-89
2022/03/30 04:39:17;;;;;;;35.65;18.65;;;;;;;4.20;75.45;100400.25;5094308;28;20103;-90
2022/03/30 04:41:43;;;;;;;37.47;19.10;;;;;;;4.21;75.56;100396.69;5094001;28;20035;-90
2022/03/30 04:44:08;;;;;;;41.00;18.85;;;;;;;4.15;75.62;100382.88;5094502;28;20024;-89
2022/03/30 04:46:33;;;;;;;39.55;18.60;;;;;;;4.19;75.69;100395.91;5088459;28;20063;-88
2022/03/30 04:48:59;;;;;;;42.70;18.92;;;;;;;4.16;75.78;100393.34;5094476;28;20419;-89
2022/03/30 04:51:24;;;;;;;45.97;19.85;;;;;;;4.19;75.65;100397.69;5095801;28;20004;-89
2022/03/30 04:53:49;;;;;;;42.25;19.55;;;;;;;4.20;75.75;100407.28;5094484;28;20032;-90
2022/03/30 04:56:15;;;;;;;37.92;19.20;;;;;;;4.16;75.81;100405.66;5090987;28;20036;-88
2022/03/30 04:58:40;;;;;;;44.95;22.30;;;;;;;4.16;75.94;100416.19;5088346;28;20032;-90
2022/03/30 05:01:05;;;;;;;50.90;22.95;;;;;;;4.08;76.14;100416.44;5087795;28;20730;-88
2022/03/30 05:03:30;;;;;;;42.65;22.05;;;;;;;4.00;76.50;100418.44;5096390;28;20170;-89
2022/03/30 05:05:57;;;;;;;42.47;21.77;;;;;;;3.83;76.83;100395.25;5091725;28;20051;-89
2022/03/30 05:08:23;;;;;;;45.80;21.63;;;;;;;3.86;77.14;100408.34;5098868;28;20087;-89
2022/03/30 05:10:48;;;;;;;53.40;22.17;;;;;;;3.78;77.47;100418.22;5097844;28;20059;-88
2022/03/30 05:13:14;;;;;;;50.17;23.13;;;;;;;3.69;77.41;100422.00;5098700;28;20028;-91
2022/03/30 05:15:39;;;;;;;39.65;21.15;;;;;;;3.61;77.84;100415.25;5087616;28;20060;-89
2022/03/30 05:18:06;;;;;;;50.65;23.33;;;;;;;3.49;78.08;100413.81;5067433;28;20047;-91
2022/03/30 05:20:31;;;;;;;45.22;22.52;;;;;;;3.39;78.50;100401.84;5080165;28;20016;-89
2022/03/30 05:22:56;;;;;;;45.05;21.30;;;;;;;3.36;78.67;100410.69;5099347;28;20043;-91
2022/03/30 05:25:22;;;;;;;51.22;22.15;;;;;;;3.31;79.18;100409.09;5078426;28;20082;-90
2022/03/30 05:27:47;;;;;;;42.17;22.02;;;;;;;3.23;79.36;100404.03;5088772;28;20516;-89
2022/03/30 05:30:13;;;;;;;42.55;21.98;;;;;;;3.18;79.47;100405.94;5061558;28;20021;-88
2022/03/30 05:32:41;;;;;;;48.22;20.80;;;;;;;3.17;79.76;100402.41;5096848;28;20024;-91
2022/03/30 05:35:06;;;;;;;46.28;21.65;;;;;;;3.16;80.19;100402.47;5096653;28;20039;-90
2022/03/30 05:37:32;;;;;;;44.85;20.85;;;;;;;3.16;80.07;100398.06;5079214;28;20032;-90
2022/03/30 05:39:58;;;;;;;43.42;20.70;;;;;;;3.17;80.12;100391.91;5096702;28;20020;-89
2022/03/30 05:42:23;;;;;;;43.70;20.65;;;;;;;3.19;79.82;100407.66;5078951;28;20036;-90
2022/03/30 05:44:51;;;;;;;50.40;21.80;;;;;;;3.18;80.00;100401.53;5089108;28;20115;-89
2022/03/30 05:47:16;;;;;;;44.67;23.40;;;;;;;3.23;80.13;100402.25;5072880;28;20074;-90
2022/03/30 05:49:42;;;;;;;45.03;22.52;;;;;;;3.23;80.15;100404.91;5085831;28;20028;-88
2022/03/30 05:52:08;;;;;;;47.10;21.27;;;;;;;3.22;79.80;100397.91;5093754;28;20024;-88
2022/03/30 05:54:35;;;;;;;44.30;21.48;;;;;;;3.24;80.04;100400.50;5075803;28;20116;-88
2022/03/30 05:57:01;;;;;;;45.78;22.52;;;;;;;3.23;80.44;100401.41;5077004;28;20019;-88
2022/03/30 05:59:34;;;;;;;46.13;21.65;;;;;;;3.25;80.26;100404.84;5079853;28;20028;-88
2022/03/30 06:02:01;;;;;;;47.50;21.80;;;;;;;3.31;79.93;100401.19;5095533;28;20385;-89
2022/03/30 06:04:28;;;;;;;45.47;22.02;;;;;;;3.37;79.77;100401.88;5094159;28;20047;-89
2022/03/30 06:06:53;;;;;;;41.35;20.50;;;;;;;3.43;79.58;100399.09;5087949;28;20071;-89
2022/03/30 06:09:19;;;;;;;50.85;22.38;;;;;;;3.42;79.30;100399.09;5101735;28;20028;-88
2022/03/30 06:11:45;;;;;;;44.65;22.95;;;;;;;3.44;79.31;100400.81;5104811;28;20041;-89
2022/03/30 06:14:11;;;;;;;46.38;23.08;;;;;;;3.50;79.12;100405.88;5097843;28;20648;-88
2022/03/30 06:16:37;;;;;;;46.80;22.25;;;;;;;3.54;79.20;100408.41;5090662;28;20092;-88
2022/03/30 06:19:03;;;;;;;48.83;22.38;;;;;;;3.59;79.10;100411.78;5096709;28;20110;-89
2022/03/30 06:21:29;;;;;;;47.13;22.92;;;;;;;3.64;79.06;100407.25;5097053;28;20436;-88
2022/03/30 06:23:55;;;;;;;53.22;23.13;;;;;;;3.65;79.10;100411.63;5076167;28;20034;-87
2022/03/30 06:26:21;;;;;;;45.35;21.38;;;;;;;3.79;78.63;100411.19;5091261;28;20051;-87
2022/03/30 06:28:47;;;;;;;40.35;20.63;;;;;;;3.93;78.34;100414.25;5095918;28;20031;-88
2022/03/30 06:31:17;;;;;;;47.58;20.77;;;;;;;4.02;77.81;100410.50;5096909;28;20489;-88
2022/03/30 06:33:43;;;;;;;42.63;19.98;;;;;;;4.12;77.22;100425.09;5097401;28;20038;-88
2022/03/30 06:36:08;;;;;;;41.80;20.85;;;;;;;4.06;77.10;100418.28;5090088;28;20020;-87
2022/03/30 06:38:33;;;;;;;43.17;21.35;;;;;;;4.09;77.33;100417.28;5094638;28;20072;-88
2022/03/30 06:40:59;;;;;;;42.83;20.13;;;;;;;4.16;76.72;100424.09;5093649;28;20020;-89
2022/03/30 06:43:24;;;;;;;46.38;19.80;;;;;;;4.29;76.96;100422.81;5094992;28;20028;-88
2022/03/30 06:45:50;;;;;;;36.70;20.48;;;;;;;4.33;76.16;100413.91;5083588;28;20024;-89
2022/03/30 06:48:15;;;;;;;45.00;20.10;;;;;;;4.40;76.03;100414.56;5095411;28;20023;-88
2022/03/30 06:50:40;;;;;;;42.10;20.55;;;;;;;4.43;75.87;100412.69;5095537;28;20035;-88
2022/03/30 06:53:07;;;;;;;42.92;21.17;;;;;;;4.53;75.27;100415.03;5075497;28;20023;-89
2022/03/30 06:55:32;;;;;;;43.38;20.70;;;;;;;4.62;75.18;100409.44;5088261;28;20027;-89
2022/03/30 06:57:57;;;;;;;42.17;20.38;;;;;;;4.77;74.23;100416.00;5092975;28;20039;-89
2022/03/30 07:00:23;;;;;;;41.65;19.98;;;;;;;4.90;73.82;100426.06;5093038;28;20028;-88
2022/03/30 07:02:48;;;;;;;38.30;19.08;;;;;;;5.00;73.51;100418.69;5077052;28;20035;-89
2022/03/30 07:05:13;;;;;;;47.03;19.45;;;;;;;5.08;73.12;100423.72;5083153;28;20031;-88
2022/03/30 07:10:23;;;;;;;39.40;19.10;;;;;;;5.45;72.21;100403.00;5067525;28;20075;-88
2022/03/30 07:12:51;;;;;;;38.50;18.83;;;;;;;5.65;71.13;100409.34;5091676;28;20054;-91
2022/03/30 07:15:17;;;;;;;37.38;20.17;;;;;;;5.81;70.15;100407.84;5096512;28;20472;-90
2022/03/30 07:17:55;;;;;;;40.35;19.38;;;;;;;5.96;69.86;100398.47;5072836;28;20032;-92
2022/03/30 07:20:22;;;;;;;35.22;18.02;;;;;;;6.20;69.29;100399.31;5095076;28;20415;-92
2022/03/30 07:22:48;;;;;;;35.63;18.23;;;;;;;6.46;68.08;100393.81;5091991;28;21148;-92
2022/03/30 07:25:15;;;;;;;41.50;19.23;;;;;;;6.79;67.65;100385.41;5090115;28;20032;-92
2022/03/30 07:27:42;;;;;;;32.80;17.30;;;;;;;7.22;65.89;100394.13;5096600;28;20019;-90
2022/03/30 07:30:08;;;;;;;38.83;18.05;;;;;;;7.45;64.21;100401.91;5091127;28;20486;-92
2022/03/30 07:32:35;;;;;;;38.22;17.58;;;;;;;7.62;63.75;100397.63;5098045;28;20040;-92
2022/03/30 07:35:01;;;;;;;31.25;16.77;;;;;;;7.97;63.24;100390.69;5078455;28;20063;-93
2022/03/30 07:37:27;;;;;;;34.50;17.00;;;;;;;8.46;61.52;100401.63;5095705;28;20032;-92
2022/03/30 07:39:52;;;;;;;35.40;16.77;;;;;;;8.85;59.88;100401.41;5096217;28;20067;-95
2022/03/30 07:42:17;;;;;;;34.88;16.75;;;;;;;9.14;58.90;100399.06;5080280;28;20071;-93
2022/03/30 07:44:43;;;;;;;33.83;16.33;;;;;;;9.25;57.74;100395.84;5094472;28;20047;-94
2022/03/30 07:47:08;;;;;;;31.83;17.08;;;;;;;9.13;57.33;100381.41;5096836;28;20310;-91
2022/03/30 07:49:33;;;;;;;32.90;16.83;;;;;;;9.23;57.68;100395.91;5073366;28;20082;-92
2022/03/30 07:52:03;;;;;;;25.02;14.90;;;;;;;9.29;57.56;100378.81;5101194;28;20054;-90
2022/03/30 07:54:28;;;;;;;31.13;15.63;;;;;;;9.48;57.12;100383.06;5111000;28;20030;-92
2022/03/30 07:56:54;;;;;;;28.60;15.30;;;;;;;9.80;56.36;100393.75;5088911;28;20020;-92
2022/03/30 07:59:19;;;;;;;34.10;16.10;;;;;;;9.95;55.09;100384.94;5101168;28;20016;-92
2022/03/30 08:01:44;;;;;;;27.80;15.65;;;;;;;10.33;54.62;100389.94;5078843;28;20143;-93
2022/03/30 08:04:09;;;;;;;29.73;15.93;;;;;;;10.76;53.52;100389.25;5086203;28;20028;-92
2022/03/30 08:06:35;;;;;;;27.92;14.95;;;;;;;10.93;51.83;100391.75;5096993;28;20496;-94
2022/03/30 08:09:01;;;;;;;25.15;14.15;;;;;;;11.08;51.83;100392.66;5081067;28;20039;-91
2022/03/30 08:11:28;;;;;;;26.80;14.43;;;;;;;11.11;51.35;100384.47;5098780;28;20028;-90
2022/03/30 08:13:53;;;;;;;29.17;15.02;;;;;;;10.96;51.00;100386.25;5097121;28;20031;-91
2022/03/30 08:16:18;;;;;;;28.13;14.30;;;;;;;11.10;51.58;100374.78;5099498;28;20090;-89
2022/03/30 08:18:43;;;;;;;24.83;14.02;;;;;;;11.56;50.47;100385.28;5100074;28;20024;-95
2022/03/30 08:23:53;;;;;;;25.23;14.27;;;;;;;12.22;48.23;100389.97;5107413;28;20105;-92
2022/03/30 08:26:20;;;;;;;23.25;13.63;;;;;;;12.31;47.47;100384.03;5099281;28;20024;-94
2022/03/30 08:28:45;;;;;;;23.17;13.65;;;;;;;12.55;47.43;100391.41;5099043;28;20105;-89
2022/03/30 08:31:10;;;;;;;26.55;13.45;;;;;;;13.02;46.80;100390.03;5102998;28;20099;-92
2022/03/30 08:33:36;;;;;;;27.10;14.98;;;;;;;13.30;45.14;100381.84;5102382;28;20152;-92
2022/03/30 08:36:01;;;;;;;24.75;13.43;;;;;;;13.59;44.30;100387.84;5063522;28;20045;-91
2022/03/30 08:38:27;;;;;;;22.60;13.77;;;;;;;13.59;44.31;100379.81;5100195;28;20039;-90
2022/03/30 08:40:56;;;;;;;22.95;13.60;;;;;;;13.70;43.72;100389.72;5117892;28;20071;-90
2022/03/30 08:43:22;;;;;;;23.17;13.80;;;;;;;13.51;43.96;100384.00;5120413;28;20032;-90
2022/03/30 08:45:47;;;;;;;22.73;13.88;;;;;;;13.71;43.52;100383.44;5101881;28;20025;-91
2022/03/30 08:48:12;;;;;;;24.25;14.32;;;;;;;13.47;43.70;100363.78;5093539;28;20062;-88
2022/03/30 08:50:37;;;;;;;21.02;13.15;;;;;;;13.59;43.72;100378.97;5101364;28;20027;-90
2022/03/30 08:53:06;;;;;;;22.77;14.70;;;;;;;14.13;43.19;100378.63;5095212;28;20027;-90
2022/03/30 08:55:31;;;;;;;24.05;12.70;;;;;;;14.58;42.00;100379.72;5097410;28;20013;-93
2022/03/30 08:57:57;;;;;;;21.95;13.60;;;;;;;15.26;41.09;100372.78;5067850;28;20134;-93
2022/03/30 09:00:23;;;;;;;23.48;13.32;;;;;;;15.43;39.89;100375.00;5099953;28;20032;-92
2022/03/30 09:03:00;;;;;;;23.05;14.20;;;;;;;15.58;39.87;100385.47;5097328;28;20028;-91
2022/03/30 09:05:27;;;;;;;25.00;12.95;;;;;;;15.93;38.91;100369.28;5102055;28;20028;-95
2022/03/30 09:08:07;;;;;;;22.92;13.77;;;;;;;16.23;39.10;100382.03;5104011;28;20028;-91
2022/03/30 09:10:33;;;;;;;24.95;14.27;;;;;;;16.37;38.13;100373.69;5096273;28;20111;-92
2022/03/30 09:12:58;;;;;;;24.10;13.35;;;;;;;16.40;37.80;100378.81;5081365;28;20043;-91
2022/03/30 09:15:25;;;;;;;25.35;14.73;;;;;;;16.21;37.32;100384.00;5096661;28;20037;-96
2022/03/30 09:17:56;;;;;;;23.63;13.88;;;;;;;16.67;37.63;100381.03;5102597;28;20084;-95
2022/03/30 09:20:22;;;;;;;23.02;14.02;;;;;;;16.84;36.61;100379.66;5102198;28;20024;-93
2022/03/30 09:22:50;;;;;;;24.30;14.13;;;;;;;16.65;36.84;100376.78;5097911;28;20045;-94
2022/03/30 09:25:16;;;;;;;25.50;14.10;;;;;;;16.85;36.98;100372.47;5100630;28;20019;-94
2022/03/30 09:27:43;;;;;;;21.77;13.30;;;;;;;17.04;36.30;100369.03;5099674;28;20032;-85
2022/03/30 09:30:17;;;;;;;23.42;13.98;;;;;;;17.25;37.20;100366.34;5084329;28;20111;-93
2022/03/30 09:32:43;;;;;;;;;;;;;;;18.43;37.11;100367.50;5081520;28;20028;-93
2022/03/30 09:35:28;;;;;;;23.17;13.13;;;;;;;18.64;33.90;100353.91;5072996;28;19917;-93
2022/03/30 09:38:08;;;;;;;21.85;13.55;;;;;;;18.13;34.24;100349.59;5091492;28;20028;-94
2022/03/30 09:40:38;;;;;;;22.58;14.02;;;;;;;18.70;33.47;100348.00;5105128;28;20024;-93
2022/03/30 09:43:22;;;;;;;20.83;12.00;;;;;;;19.49;33.17;100344.16;5096597;28;20035;-95
2022/03/30 09:45:50;;;;;;;18.63;12.18;;;;;;;20.07;30.97;100349.31;5094569;28;20036;-93
2022/03/30 09:48:26;;;;;;;21.25;12.38;;;;;;;20.41;31.75;100352.22;5098469;28;20035;-93
2022/03/30 09:50:55;;;;;;;21.10;13.13;;;;;;;19.64;31.19;100345.38;5095302;28;20503;-92
2022/03/30 09:53:23;;;;;;;20.05;12.43;;;;;;;18.84;32.28;100339.47;5094653;28;20028;-92
2022/03/30 09:55:59;;;;;;;22.83;12.10;;;;;;;18.88;32.67;100350.81;5086731;28;20030;-96
2022/03/30 09:58:26;;;;;;;16.90;11.40;;;;;;;19.01;32.08;100326.22;5093270;28;20039;-95
2022/03/30 10:01:02;;;;;;;16.83;11.38;;;;;;;19.77;31.92;100331.53;5097338;28;20028;-94
2022/03/30 10:03:38;;;;;;;19.15;12.13;;;;;;;19.93;31.18;100330.91;5094731;28;20027;-93
2022/03/30 10:06:04;;;;;;;18.48;12.07;;;;;;;19.82;30.35;100335.50;5109428;28;20028;-96
2022/03/30 10:08:30;;;;;;;17.90;12.38;;;;;;;19.98;30.44;100334.00;5104949;28;20051;-92
2022/03/30 10:10:56;;;;;;;22.25;13.63;;;;;;;20.42;29.55;100331.44;5098317;28;20529;-94
2022/03/30 10:13:22;;;;;;;21.73;12.25;;;;;;;20.83;29.12;100328.13;5094979;28;20295;-92
2022/03/30 10:15:48;;;;;;;21.70;12.23;;;;;;;21.28;28.71;100321.69;5095137;28;20032;-92
2022/03/30 10:18:13;;;;;;;21.45;12.57;;;;;;;21.23;28.06;100324.00;5094508;28;20039;-92
2022/03/30 10:20:39;;;;;;;16.38;12.35;;;;;;;20.81;28.49;100319.31;5096072;28;20038;-89
2022/03/30 10:23:13;;;;;;;18.20;12.75;;;;;;;20.92;28.55;100323.63;5077948;28;20095;-92
2022/03/30 10:25:57;;;;;;;17.58;12.90;;;;;;;21.14;27.95;100319.53;5071479;28;20037;-92
2022/03/30 10:28:47;;;;;;;19.15;13.32;;;;;;;22.08;28.89;100299.72;5089356;28;20414;-95
2022/03/30 10:31:13;;;;;;;18.80;13.00;;;;;;;22.36;26.85;100298.44;5093720;28;20023;-95
2022/03/30 10:33:44;;;;;;;19.13;12.80;;;;;;;22.25;26.61;100306.91;5100870;28;20027;-94
2022/03/30 10:36:26;;;;;;;17.13;13.10;;;;;;;22.25;27.22;100306.91;5099385;28;20103;-93
2022/03/30 10:39:11;;;;;;;19.00;12.82;;;;;;;21.99;27.78;100303.41;5099608;28;20016;-94
2022/03/30 10:41:54;;;;;;;19.23;13.98;;;;;;;22.60;27.99;100296.75;5100345;28;20046;-94
2022/03/30 10:44:32;;;;;;;16.55;12.20;;;;;;;23.06;27.01;100297.94;5091114;28;20161;-92
2022/03/30 10:47:16;;;;;;;20.83;13.40;;;;;;;23.24;26.76;100294.16;5085906;28;20036;-96
2022/03/30 10:49:45;;;;;;;22.85;13.88;;;;;;;23.29;25.84;100294.50;5094275;28;20388;-95
2022/03/30 10:52:35;;;;;;;18.73;12.23;;;;;;;24.07;26.48;100294.53;5080287;28;20496;-96
2022/03/30 10:55:12;;;;;;;20.00;13.38;;;;;;;24.76;24.78;100289.13;5088043;28;20031;-95
2022/03/30 10:58:01;;;;;;;20.60;13.40;;;;;;;23.97;26.04;100276.78;5093978;28;20039;-95
2022/03/30 11:00:38;;;;;;;18.88;12.73;;;;;;;24.19;24.96;100278.66;5082425;28;20123;-96
2022/03/30 11:03:20;;;;;;;18.50;12.90;;;;;;;24.56;23.80;100272.47;5098644;28;20464;-96
2022/03/30 11:06:06;;;;;;;18.27;13.57;;;;;;;24.63;24.56;100278.03;5048814;28;20037;-96
2022/03/30 11:08:34;;;;;;;19.67;13.07;;;;;;;24.38;23.58;100263.78;5080373;28;20073;-95
2022/03/30 11:11:39;;;;;;;19.50;13.63;;;;;;;25.23;24.07;100257.22;5077802;28;20032;-93
2022/03/30 11:14:29;;;;;;;21.15;13.35;;;;;;;24.66;24.62;100266.75;5064447;28;20021;-95
2022/03/30 11:17:09;;;;;;;16.33;12.48;;;;;;;25.02;24.25;100258.78;5063217;28;20087;-96
2022/03/30 11:19:46;;;;;;;20.42;13.30;;;;;;;25.48;23.20;100264.06;5062723;28;20029;-92
2022/03/30 11:22:15;;;;;;;21.05;13.98;;;;;;;25.40;22.77;100256.00;5072757;28;20063;-92
2022/03/30 11:24:43;;;;;;;19.88;13.88;;;;;;;25.06;22.49;100245.63;5071480;28;20041;-93
2022/03/30 11:27:08;;;;;;;21.35;14.10;;;;;;;24.51;23.41;100260.44;5071661;28;20731;-89